Terminal Aerodrome Forecast
Issued by NWS

Home | Current Version | Previous Version | Graphics & Text | Print | Product List | Glossary On
Versions: 1 2 3 4 5 6 7 8 9 10 11 12 13 14
355
FTUS45 KGGW 162325
TAFSDY
TAF
KSDY 162325Z 1700/1724 21008KT P6SM BKN100
     FM170600 22009KT P6SM SCT001 BKN030 WS020/26035KT
     FM170900 22008KT 3SM BR BKN025 WS020/27045KT
     FM171200 24012KT P6SM SCT020 WS020/28040KT
     FM171400 24012KT P6SM SCT100 WS020/28040KT
     FM171800 25012KT P6SM FEW110=

USA.gov is the U.S. government's official web portal to all federal, state and local government web resources and services.